createdAt,value
2019-03-19T00:00:18.696Z,3
2019-03-19T00:01:21.800Z,3
2019-03-19T00:02:18.718Z,3
2019-03-19T00:03:18.677Z,3
2019-03-19T00:04:18.676Z,3
2019-03-19T00:05:18.652Z,3
2019-03-19T00:06:18.664Z,3
2019-03-19T00:07:18.704Z,3
2019-03-19T00:08:18.813Z,3
2019-03-19T00:09:18.658Z,3
2019-03-19T00:10:18.658Z,3
2019-03-19T00:11:18.659Z,3
2019-03-19T00:12:18.730Z,3
2019-03-19T00:13:18.833Z,3
2019-03-19T00:14:18.660Z,2
2019-03-19T00:15:18.675Z,2
2019-03-19T00:16:18.683Z,2
2019-03-19T00:17:18.720Z,2
2019-03-19T00:18:18.747Z,2
2019-03-19T00:19:18.693Z,2
2019-03-19T00:20:18.685Z,2
2019-03-19T00:21:18.676Z,2
2019-03-19T00:22:18.684Z,2
2019-03-19T00:23:18.736Z,2
2019-03-19T00:24:18.704Z,2
2019-03-19T00:25:29.051Z,2
2019-03-19T00:26:18.721Z,2
2019-03-19T00:27:18.666Z,2
2019-03-19T00:28:18.752Z,2
2019-03-19T00:29:18.695Z,2
2019-03-19T00:30:18.658Z,2
2019-03-19T00:31:18.659Z,2
2019-03-19T00:32:18.666Z,2
2019-03-19T00:33:18.718Z,2
2019-03-19T00:34:18.650Z,2
2019-03-19T00:35:18.686Z,2
2019-03-19T00:36:18.660Z,2
2019-03-19T00:37:18.769Z,2
2019-03-19T00:38:18.711Z,2
2019-03-19T00:39:18.650Z,2
2019-03-19T00:40:18.654Z,2
2019-03-19T00:41:18.654Z,2
2019-03-19T00:42:18.670Z,2
2019-03-19T00:43:18.716Z,2
2019-03-19T00:44:18.655Z,2
2019-03-19T00:45:18.664Z,2
2019-03-19T00:46:18.701Z,2
2019-03-19T00:47:18.650Z,2
2019-03-19T00:48:18.719Z,2
2019-03-19T00:49:18.657Z,2
2019-03-19T00:50:18.679Z,2
2019-03-19T00:51:18.659Z,2
2019-03-19T00:52:18.662Z,2
2019-03-19T00:53:18.793Z,2
2019-03-19T00:54:18.654Z,2
2019-03-19T00:55:18.692Z,2
2019-03-19T00:56:18.658Z,2
2019-03-19T00:57:18.657Z,2
2019-03-19T00:58:18.717Z,2
2019-03-19T00:59:18.658Z,2
2019-03-19T01:00:18.656Z,2
2019-03-19T01:01:18.706Z,2
2019-03-19T01:02:18.661Z,2
2019-03-19T01:03:18.731Z,2
2019-03-19T01:04:18.732Z,2
2019-03-19T01:05:18.674Z,2
2019-03-19T01:06:18.670Z,2
2019-03-19T01:07:18.709Z,2
2019-03-19T01:08:19.006Z,2
2019-03-19T01:09:18.746Z,2
2019-03-19T01:10:18.680Z,2
2019-03-19T01:11:18.714Z,2
2019-03-19T01:12:18.690Z,2
2019-03-19T01:13:18.792Z,2
2019-03-19T01:14:18.670Z,2
2019-03-19T01:15:18.715Z,2
2019-03-19T01:16:18.678Z,2
2019-03-19T01:17:18.656Z,2
2019-03-19T01:18:18.653Z,2
2019-03-19T01:19:18.651Z,2
2019-03-19T01:20:18.732Z,2
2019-03-19T01:21:18.677Z,2
2019-03-19T01:22:18.791Z,2
2019-03-19T01:23:18.693Z,2
2019-03-19T01:24:18.701Z,2
2019-03-19T01:25:19.015Z,2
2019-03-19T01:26:18.658Z,2
2019-03-19T01:27:18.667Z,2
2019-03-19T01:28:18.686Z,2
2019-03-19T01:29:18.662Z,2
2019-03-19T01:30:18.736Z,2
2019-03-19T01:34:18.665Z,2
2019-03-19T01:36:18.699Z,2
2019-03-19T01:37:18.713Z,2
2019-03-19T01:38:18.724Z,2
2019-03-19T01:39:18.655Z,2
2019-03-19T01:40:18.649Z,2
2019-03-19T01:41:18.742Z,2
2019-03-19T01:42:18.960Z,2
2019-03-19T01:43:18.778Z,2
2019-03-19T01:44:18.671Z,2
2019-03-19T01:45:18.672Z,2
2019-03-19T01:46:18.673Z,2
2019-03-19T01:47:18.650Z,2
2019-03-19T01:48:18.741Z,2
2019-03-19T01:49:18.653Z,2
2019-03-19T01:50:18.678Z,2
2019-03-19T01:51:18.706Z,2
2019-03-19T01:52:18.739Z,2
2019-03-19T01:53:18.730Z,2
2019-03-19T01:54:18.711Z,2
2019-03-19T01:55:18.667Z,2
2019-03-19T01:56:18.663Z,2
2019-03-19T01:57:18.674Z,2
2019-03-19T01:58:18.720Z,2
2019-03-19T01:59:18.689Z,2
2019-03-19T02:00:18.681Z,2
2019-03-19T02:01:18.663Z,2
2019-03-19T02:02:18.666Z,2
2019-03-19T02:03:18.753Z,2
2019-03-19T02:04:18.689Z,2
2019-03-19T02:05:18.646Z,2
2019-03-19T02:06:18.660Z,2
2019-03-19T02:07:18.700Z,2
2019-03-19T02:08:18.782Z,2
2019-03-19T02:09:18.657Z,2
2019-03-19T02:10:18.679Z,2
2019-03-19T02:11:18.699Z,2
2019-03-19T02:12:18.654Z,2
2019-03-19T02:13:18.706Z,2
2019-03-19T02:14:18.736Z,2
2019-03-19T02:15:18.708Z,2
2019-03-19T02:16:18.655Z,2
2019-03-19T02:17:18.648Z,2
2019-03-19T02:18:18.772Z,2
2019-03-19T02:19:18.670Z,2
2019-03-19T02:20:18.659Z,2
2019-03-19T02:21:18.959Z,2
2019-03-19T02:22:18.655Z,2
2019-03-19T02:23:18.701Z,2
2019-03-19T02:24:18.650Z,2
2019-03-19T02:25:18.672Z,2
2019-03-19T02:26:18.673Z,2
2019-03-19T02:27:18.697Z,2
2019-03-19T02:28:18.698Z,2
2019-03-19T02:29:18.651Z,2
2019-03-19T02:30:18.703Z,2
2019-03-19T02:31:18.666Z,2
2019-03-19T02:32:18.722Z,2
2019-03-19T02:33:19.032Z,2
2019-03-19T02:34:18.768Z,2
2019-03-19T02:35:18.659Z,2
2019-03-19T02:36:18.735Z,2
2019-03-19T02:37:18.681Z,2
2019-03-19T02:38:18.659Z,2
2019-03-19T02:39:21.065Z,2
2019-03-19T02:40:21.745Z,2
2019-03-19T02:41:18.687Z,2
2019-03-19T02:42:18.738Z,2
2019-03-19T02:43:18.795Z,3
2019-03-19T02:44:18.714Z,2
2019-03-19T02:45:18.834Z,2
2019-03-19T02:46:18.733Z,2
2019-03-19T02:47:18.929Z,2
2019-03-19T02:48:18.756Z,2
2019-03-19T02:49:18.683Z,2
2019-03-19T02:50:18.865Z,2
2019-03-19T02:51:18.688Z,2
2019-03-19T02:52:18.657Z,2
2019-03-19T02:53:18.688Z,2
2019-03-19T02:54:18.720Z,2
2019-03-19T02:55:18.689Z,2
2019-03-19T02:56:31.932Z,2
2019-03-19T02:57:18.713Z,2
2019-03-19T02:58:18.673Z,2
2019-03-19T02:59:18.678Z,2
2019-03-19T03:00:18.679Z,2
2019-03-19T03:01:18.740Z,2
2019-03-19T03:02:18.685Z,2
2019-03-19T03:03:18.675Z,2
2019-03-19T03:04:18.681Z,2
2019-03-19T03:05:18.688Z,2
2019-03-19T03:06:18.734Z,2
2019-03-19T03:07:18.674Z,2
2019-03-19T03:08:18.663Z,2
2019-03-19T03:09:18.671Z,2
2019-03-19T03:10:18.661Z,2
2019-03-19T03:11:18.737Z,2
2019-03-19T03:13:18.665Z,2
2019-03-19T03:14:18.635Z,2
2019-03-19T03:16:18.806Z,2
2019-03-19T03:17:18.656Z,2
2019-03-19T03:18:18.705Z,2
2019-03-19T03:19:18.668Z,2
2019-03-19T03:20:18.750Z,2
2019-03-19T03:21:18.660Z,2
2019-03-19T03:22:18.689Z,2
2019-03-19T03:23:18.677Z,2
2019-03-19T03:24:18.685Z,2
2019-03-19T03:25:18.710Z,2
2019-03-19T03:26:18.667Z,2
2019-03-19T03:27:18.661Z,2
2019-03-19T03:28:18.669Z,2
2019-03-19T03:29:18.661Z,2
2019-03-19T03:30:18.703Z,2
2019-03-19T03:31:18.678Z,2
2019-03-19T03:32:18.655Z,2
2019-03-19T03:33:18.647Z,2
2019-03-19T03:34:18.674Z,2
2019-03-19T03:35:18.679Z,2
2019-03-19T03:36:18.692Z,2
2019-03-19T03:37:18.650Z,2
2019-03-19T03:38:18.664Z,2
2019-03-19T03:39:18.661Z,2
2019-03-19T03:40:18.714Z,2
2019-03-19T03:41:18.987Z,2
2019-03-19T03:42:18.716Z,2
2019-03-19T03:43:18.654Z,2
2019-03-19T03:44:18.665Z,2
2019-03-19T03:45:18.665Z,2
2019-03-19T03:46:18.662Z,2
2019-03-19T03:47:18.996Z,2
2019-03-19T03:48:18.646Z,2
2019-03-19T03:49:18.672Z,2
2019-03-19T03:50:18.689Z,2
2019-03-19T03:51:18.660Z,2
2019-03-19T03:52:18.667Z,2
2019-03-19T03:53:18.947Z,2
2019-03-19T03:54:18.652Z,2
2019-03-19T03:55:18.701Z,2
2019-03-19T03:56:18.661Z,2
2019-03-19T03:57:18.659Z,2
2019-03-19T03:58:18.659Z,2
2019-03-19T03:59:18.993Z,2
2019-03-19T04:00:18.719Z,2
2019-03-19T04:01:18.663Z,2
2019-03-19T04:02:18.659Z,2
2019-03-19T04:03:18.701Z,2
2019-03-19T04:04:18.662Z,2
2019-03-19T04:05:18.995Z,2
2019-03-19T04:06:18.656Z,2
2019-03-19T04:07:18.809Z,2
2019-03-19T04:09:18.658Z,2
2019-03-19T04:11:18.703Z,2
2019-03-19T04:12:18.657Z,3
2019-03-19T04:13:18.684Z,3
2019-03-19T04:14:18.658Z,3
2019-03-19T04:15:18.656Z,3
2019-03-19T04:16:19.000Z,3
2019-03-19T04:17:18.662Z,3
2019-03-19T04:18:18.651Z,3
2019-03-19T04:19:18.695Z,2
2019-03-19T04:20:18.719Z,2
2019-03-19T04:21:18.683Z,2
2019-03-19T04:22:18.937Z,2
2019-03-19T04:23:18.650Z,2
2019-03-19T04:24:18.651Z,2
2019-03-19T04:25:18.716Z,2
2019-03-19T04:26:18.665Z,2
2019-03-19T04:27:18.662Z,2
2019-03-19T04:28:18.970Z,2
2019-03-19T04:29:18.649Z,2
2019-03-19T04:30:18.712Z,2
2019-03-19T04:31:18.666Z,2
2019-03-19T04:32:18.967Z,2
2019-03-19T04:33:18.690Z,2
2019-03-19T04:34:19.996Z,2
2019-03-19T04:35:18.709Z,2
2019-03-19T04:36:18.679Z,2
2019-03-19T04:37:18.706Z,2
2019-03-19T04:38:18.708Z,2
2019-03-19T04:39:18.647Z,2
2019-03-19T04:40:18.996Z,2
2019-03-19T04:41:18.687Z,2
2019-03-19T04:42:18.655Z,2
2019-03-19T04:43:18.655Z,2
2019-03-19T04:44:18.659Z,2
2019-03-19T04:45:18.700Z,2
2019-03-19T04:46:18.656Z,2
2019-03-19T04:47:18.705Z,2
2019-03-19T04:48:18.689Z,2
2019-03-19T04:49:18.652Z,2
2019-03-19T04:50:18.673Z,2
2019-03-19T04:51:18.702Z,2
2019-03-19T04:52:18.645Z,2
2019-03-19T04:53:18.650Z,2
2019-03-19T04:54:18.655Z,2
2019-03-19T04:55:18.652Z,2
2019-03-19T04:56:18.712Z,2
2019-03-19T04:57:26.742Z,2
2019-03-19T04:58:18.984Z,2
2019-03-19T04:59:18.656Z,2
2019-03-19T05:00:18.658Z,2
2019-03-19T05:01:18.657Z,2
2019-03-19T05:02:18.701Z,2
2019-03-19T05:03:18.666Z,2
2019-03-19T05:04:18.978Z,2
2019-03-19T05:05:18.645Z,2
2019-03-19T05:06:18.705Z,2
2019-03-19T05:07:18.651Z,2
2019-03-19T05:08:18.726Z,2
2019-03-19T05:09:18.653Z,2
2019-03-19T05:10:18.933Z,2
2019-03-19T05:11:18.728Z,2
2019-03-19T05:12:18.645Z,2
2019-03-19T05:13:18.650Z,2
2019-03-19T05:14:18.646Z,2
2019-03-19T05:15:18.662Z,2
2019-03-19T05:16:18.992Z,2
2019-03-19T05:17:18.687Z,2
2019-03-19T05:18:18.764Z,2
2019-03-19T05:19:18.704Z,2
2019-03-19T05:20:18.652Z,2
2019-03-19T05:21:18.800Z,2
2019-03-19T05:22:19.013Z,2
2019-03-19T05:23:18.709Z,2
2019-03-19T05:24:18.652Z,2
2019-03-19T05:25:18.692Z,2
2019-03-19T05:26:18.654Z,2
2019-03-19T05:27:18.651Z,2
2019-03-19T05:28:18.691Z,2
2019-03-19T05:29:18.705Z,2
2019-03-19T05:30:18.650Z,2
2019-03-19T05:31:18.710Z,2
2019-03-19T05:32:18.692Z,2
2019-03-19T05:33:19.603Z,2
2019-03-19T05:34:18.715Z,2
2019-03-19T05:35:18.652Z,2
2019-03-19T05:36:18.721Z,2
2019-03-19T05:37:18.689Z,2
2019-03-19T05:38:18.647Z,2
2019-03-19T05:39:18.666Z,2
2019-03-19T05:40:18.651Z,2
2019-03-19T05:41:18.858Z,2
2019-03-19T05:42:18.730Z,2
2019-03-19T05:43:18.659Z,2
2019-03-19T05:44:18.657Z,2
2019-03-19T05:45:18.989Z,2
2019-03-19T05:46:18.672Z,2
2019-03-19T05:47:18.708Z,2
2019-03-19T05:48:18.661Z,2
2019-03-19T05:49:18.656Z,2
2019-03-19T05:50:18.737Z,2
2019-03-19T05:51:18.707Z,2
2019-03-19T05:52:18.775Z,2
2019-03-19T05:53:18.643Z,2
2019-03-19T05:54:18.689Z,2
2019-03-19T05:55:18.741Z,2
2019-03-19T05:56:18.694Z,2
2019-03-19T05:57:18.754Z,2
2019-03-19T05:58:18.709Z,2
2019-03-19T05:59:18.762Z,2
2019-03-19T06:00:18.714Z,2
2019-03-19T06:01:18.701Z,2
2019-03-19T06:02:19.009Z,2
2019-03-19T06:03:18.706Z,2
2019-03-19T06:04:18.771Z,2
2019-03-19T06:05:20.888Z,2
2019-03-19T06:06:18.745Z,2
2019-03-19T06:07:18.752Z,2
2019-03-19T06:08:18.947Z,2
2019-03-19T06:09:18.682Z,2
2019-03-19T06:10:18.728Z,2
2019-03-19T06:11:18.808Z,2
2019-03-19T06:12:18.747Z,2
2019-03-19T06:13:18.777Z,2
2019-03-19T06:14:18.949Z,2
2019-03-19T06:15:18.768Z,2
2019-03-19T06:16:18.719Z,2
2019-03-19T06:17:18.700Z,2
2019-03-19T06:18:18.826Z,2
2019-03-19T06:19:18.687Z,2
2019-03-19T06:20:18.717Z,2
2019-03-19T06:21:18.688Z,2
2019-03-19T06:22:18.678Z,2
2019-03-19T06:23:18.741Z,2
2019-03-19T06:24:18.650Z,2
2019-03-19T06:25:18.765Z,2
2019-03-19T06:26:18.652Z,2
2019-03-19T06:27:18.715Z,2
2019-03-19T06:28:18.759Z,2
2019-03-19T06:29:18.650Z,2
2019-03-19T06:30:18.666Z,2
2019-03-19T06:31:18.936Z,2
2019-03-19T06:32:19.015Z,2
2019-03-19T06:33:18.959Z,3
2019-03-19T06:34:18.682Z,2
2019-03-19T06:35:18.723Z,2
2019-03-19T06:36:18.664Z,2
2019-03-19T06:37:18.730Z,2
2019-03-19T06:38:18.733Z,3
2019-03-19T06:39:18.669Z,3
2019-03-19T06:41:18.739Z,2
2019-03-19T06:42:18.777Z,2
2019-03-19T06:43:18.674Z,2
2019-03-19T06:44:18.680Z,2
2019-03-19T06:45:18.719Z,2
2019-03-19T06:46:18.713Z,2
2019-03-19T06:47:18.780Z,2
2019-03-19T06:48:18.651Z,2
2019-03-19T06:49:19.974Z,2
2019-03-19T06:50:18.741Z,3
2019-03-19T06:51:18.997Z,3
2019-03-19T06:52:18.728Z,3
2019-03-19T06:53:18.673Z,4
2019-03-19T06:54:18.658Z,4
2019-03-19T06:55:19.275Z,5
2019-03-19T06:56:19.187Z,4
2019-03-19T06:57:20.528Z,4
2019-03-19T06:58:22.693Z,8
2019-03-19T06:59:21.648Z,7
2019-03-19T07:00:18.670Z,3
2019-03-19T07:01:18.651Z,3
2019-03-19T07:02:18.756Z,3
2019-03-19T07:03:18.686Z,3
2019-03-19T07:04:18.734Z,3
2019-03-19T07:05:18.655Z,3
2019-03-19T07:06:18.638Z,4
2019-03-19T07:07:18.755Z,4
2019-03-19T07:08:18.710Z,6
2019-03-19T07:09:18.660Z,5
2019-03-19T07:10:18.679Z,5
2019-03-19T07:11:18.757Z,6
2019-03-19T07:12:18.646Z,4
2019-03-19T07:13:18.699Z,5
2019-03-19T07:14:18.672Z,6
2019-03-19T07:15:18.678Z,5
2019-03-19T07:16:18.663Z,6
2019-03-19T07:17:18.679Z,5
2019-03-19T07:18:19.937Z,5
2019-03-19T07:19:20.337Z,6
2019-03-19T07:20:20.472Z,6
2019-03-19T07:21:18.657Z,5
2019-03-19T07:22:18.651Z,5
2019-03-19T07:23:18.816Z,5
2019-03-19T07:24:18.744Z,5
2019-03-19T07:25:18.733Z,5
2019-03-19T07:26:18.681Z,5
2019-03-19T07:27:18.991Z,5
2019-03-19T07:28:22.255Z,5
2019-03-19T07:29:18.707Z,5
2019-03-19T07:30:18.653Z,5
2019-03-19T07:31:18.812Z,5
2019-03-19T07:32:18.719Z,5
2019-03-19T07:33:18.720Z,6
2019-03-19T07:34:18.665Z,6
2019-03-19T07:35:18.653Z,6
2019-03-19T07:36:18.722Z,5
2019-03-19T07:37:18.674Z,5
2019-03-19T07:38:18.781Z,5
2019-03-19T07:39:18.691Z,5
2019-03-19T07:40:20.954Z,6
2019-03-19T07:41:18.671Z,5
2019-03-19T07:42:18.739Z,5
2019-03-19T07:43:18.692Z,5
2019-03-19T07:44:18.645Z,5
2019-03-19T07:45:18.678Z,6
2019-03-19T07:46:18.655Z,6
2019-03-19T07:47:18.727Z,6
2019-03-19T07:48:18.880Z,5
2019-03-19T07:49:18.655Z,5
2019-03-19T07:50:18.662Z,5
2019-03-19T07:51:18.720Z,5
2019-03-19T07:52:18.643Z,5
2019-03-19T07:53:20.757Z,5
2019-03-19T07:54:18.735Z,5
2019-03-19T07:55:18.728Z,5
2019-03-19T07:56:18.656Z,5
2019-03-19T07:57:18.643Z,5
2019-03-19T07:58:18.728Z,5
2019-03-19T07:59:18.761Z,5
2019-03-19T08:00:18.653Z,5
2019-03-19T08:01:18.655Z,6
2019-03-19T08:02:18.686Z,6
2019-03-19T08:03:18.715Z,5
2019-03-19T08:04:18.743Z,6
2019-03-19T08:05:18.698Z,5
2019-03-19T08:06:18.690Z,5
2019-03-19T08:07:18.700Z,5
2019-03-19T08:08:18.655Z,6
2019-03-19T08:09:18.732Z,7
2019-03-19T08:10:18.852Z,6
2019-03-19T08:11:18.841Z,5
2019-03-19T08:12:19.234Z,5
2019-03-19T08:13:18.737Z,5
2019-03-19T08:14:18.805Z,4
2019-03-19T08:15:18.989Z,4
2019-03-19T08:16:27.105Z,4
2019-03-19T08:17:18.774Z,4
2019-03-19T08:18:18.726Z,4
2019-03-19T08:19:18.735Z,5
2019-03-19T08:20:18.773Z,4
2019-03-19T08:21:18.663Z,4
2019-03-19T08:22:18.662Z,4
2019-03-19T08:23:18.646Z,4
2019-03-19T08:24:18.659Z,4
2019-03-19T08:25:18.699Z,4
2019-03-19T08:26:18.669Z,4
2019-03-19T08:27:18.643Z,4
2019-03-19T08:28:18.763Z,5
2019-03-19T08:29:18.684Z,4
2019-03-19T08:30:18.658Z,4
2019-03-19T08:31:18.701Z,4
2019-03-19T08:32:18.976Z,3
2019-03-19T08:33:18.670Z,3
2019-03-19T08:34:19.988Z,4
2019-03-19T08:35:19.458Z,5
2019-03-19T08:36:18.820Z,4
2019-03-19T08:37:19.043Z,4
2019-03-19T08:38:19.406Z,4
2019-03-19T08:39:18.651Z,3
2019-03-19T08:40:18.655Z,4
2019-03-19T08:41:19.079Z,4
2019-03-19T08:42:18.646Z,5
2019-03-19T08:43:20.388Z,4
2019-03-19T08:44:27.457Z,4
2019-03-19T08:45:18.666Z,4
2019-03-19T08:46:18.822Z,5
2019-03-19T08:47:19.142Z,6
2019-03-19T08:48:18.999Z,6
2019-03-19T08:49:19.608Z,6
2019-03-19T08:50:18.657Z,5
2019-03-19T08:51:18.665Z,4
2019-03-19T08:52:20.649Z,5
2019-03-19T08:53:19.945Z,4
2019-03-19T08:54:18.655Z,4
2019-03-19T08:55:18.649Z,3
2019-03-19T08:56:18.825Z,4
2019-03-19T08:57:18.646Z,3
2019-03-19T08:58:18.703Z,4
2019-03-19T08:59:18.635Z,4
2019-03-19T09:00:18.683Z,5
2019-03-19T09:01:18.769Z,4
2019-03-19T09:02:18.530Z,2
2019-03-19T09:03:18.574Z,3
2019-03-19T09:04:19.434Z,3
2019-03-19T09:05:18.487Z,3
2019-03-19T09:06:18.561Z,3
2019-03-19T09:07:20.133Z,2
2019-03-19T09:08:18.351Z,2
2019-03-19T09:09:18.347Z,2
2019-03-19T09:10:18.301Z,2
2019-03-19T09:11:18.358Z,2
2019-03-19T09:12:18.284Z,2
2019-03-19T09:13:18.390Z,2
2019-03-19T09:14:18.312Z,2
2019-03-19T09:15:18.365Z,2
2019-03-19T09:16:18.471Z,2
2019-03-19T09:17:18.399Z,2
2019-03-19T09:18:18.448Z,2
2019-03-19T09:19:18.502Z,2
2019-03-19T09:20:18.789Z,2
2019-03-19T09:21:18.523Z,2
2019-03-19T09:22:18.548Z,2
2019-03-19T09:23:18.644Z,3
2019-03-19T09:24:18.681Z,2
2019-03-19T09:25:18.694Z,2
2019-03-19T09:26:18.677Z,2
2019-03-19T09:27:18.854Z,2
2019-03-19T09:28:18.793Z,2
2019-03-19T09:29:18.657Z,2
2019-03-19T09:30:18.703Z,2
2019-03-19T09:31:18.737Z,2
2019-03-19T09:32:18.699Z,2
2019-03-19T09:33:18.731Z,3
2019-03-19T09:34:18.651Z,3
2019-03-19T09:35:18.719Z,3
2019-03-19T09:36:18.647Z,3
2019-03-19T09:37:18.655Z,3
2019-03-19T09:38:18.651Z,3
2019-03-19T09:39:18.656Z,3
2019-03-19T09:40:18.766Z,3
2019-03-19T09:41:18.656Z,3
2019-03-19T09:42:18.655Z,3
2019-03-19T09:43:18.996Z,3
2019-03-19T09:44:18.708Z,3
2019-03-19T09:45:18.698Z,4
2019-03-19T09:46:18.694Z,4
2019-03-19T09:47:18.786Z,4
2019-03-19T09:48:18.722Z,3
2019-03-19T09:49:21.098Z,3
2019-03-19T09:50:18.725Z,3
2019-03-19T09:52:18.708Z,3
2019-03-19T09:53:18.929Z,3
2019-03-19T09:55:19.005Z,3
2019-03-19T09:56:18.674Z,3
2019-03-19T09:57:18.690Z,3
2019-03-19T09:58:18.642Z,3
2019-03-19T09:59:26.738Z,3
2019-03-19T10:00:18.691Z,3
2019-03-19T10:01:19.018Z,3
2019-03-19T10:02:18.644Z,3
2019-03-19T10:03:18.649Z,4
2019-03-19T10:04:18.664Z,4
2019-03-19T10:05:18.789Z,4
2019-03-19T10:06:18.695Z,4
2019-03-19T10:07:18.667Z,4
2019-03-19T10:08:18.645Z,3
2019-03-19T10:09:18.709Z,3
2019-03-19T10:10:18.662Z,4
2019-03-19T10:11:18.720Z,4
2019-03-19T10:12:18.668Z,3
2019-03-19T10:13:18.664Z,3
2019-03-19T10:14:18.704Z,3
2019-03-19T10:15:18.690Z,3
2019-03-19T10:16:18.689Z,3
2019-03-19T10:17:18.657Z,3
2019-03-19T10:18:18.651Z,3
2019-03-19T10:19:18.652Z,3
2019-03-19T10:20:18.678Z,4
2019-03-19T10:21:18.728Z,4
2019-03-19T10:22:18.646Z,3
2019-03-19T10:23:20.013Z,3
2019-03-19T10:24:18.651Z,3
2019-03-19T10:25:18.645Z,3
2019-03-19T10:26:18.704Z,3
2019-03-19T10:27:19.744Z,4
2019-03-19T10:28:18.657Z,3
2019-03-19T10:29:18.652Z,3
2019-03-19T10:30:18.707Z,3
2019-03-19T10:31:18.721Z,3
2019-03-19T10:32:18.640Z,3
2019-03-19T10:33:18.644Z,3
2019-03-19T10:34:19.027Z,3
2019-03-19T10:35:18.650Z,3
2019-03-19T10:36:18.721Z,3
2019-03-19T10:37:18.656Z,3
2019-03-19T10:38:18.644Z,3
2019-03-19T10:39:18.640Z,3
2019-03-19T10:40:18.653Z,3
2019-03-19T10:41:18.698Z,3
2019-03-19T10:42:19.468Z,3
2019-03-19T10:43:19.994Z,3
2019-03-19T10:44:19.350Z,3
2019-03-19T10:45:21.321Z,3
2019-03-19T10:46:18.702Z,3
2019-03-19T10:47:18.726Z,2
2019-03-19T10:48:18.768Z,2
2019-03-19T10:49:18.644Z,3
2019-03-19T10:50:18.666Z,4
2019-03-19T10:51:18.644Z,3
2019-03-19T10:52:18.735Z,3
2019-03-19T10:53:18.643Z,3
2019-03-19T10:54:18.677Z,3
2019-03-19T10:55:18.684Z,3
2019-03-19T10:56:18.665Z,3
2019-03-19T10:57:18.685Z,3
2019-03-19T10:58:18.646Z,3
2019-03-19T10:59:18.657Z,3
2019-03-19T11:00:18.658Z,3
2019-03-19T11:01:18.715Z,3
2019-03-19T11:02:18.725Z,3
2019-03-19T11:03:18.680Z,3
2019-03-19T11:04:18.653Z,3
2019-03-19T11:05:18.648Z,3
2019-03-19T11:06:18.714Z,3
2019-03-19T11:07:18.727Z,3
2019-03-19T11:08:18.652Z,4
2019-03-19T11:09:18.650Z,4
2019-03-19T11:10:18.648Z,5
2019-03-19T11:11:18.714Z,6
2019-03-19T11:12:18.714Z,6
2019-03-19T11:13:18.818Z,6
2019-03-19T11:14:18.792Z,6
2019-03-19T11:15:18.662Z,6
2019-03-19T11:16:18.843Z,6
2019-03-19T11:17:19.163Z,6
2019-03-19T11:18:18.722Z,6
2019-03-19T11:19:18.728Z,6
2019-03-19T11:20:18.742Z,6
2019-03-19T11:21:18.679Z,5
2019-03-19T11:22:18.740Z,5
2019-03-19T11:23:23.102Z,5
2019-03-19T11:24:18.665Z,4
2019-03-19T11:25:18.686Z,4
2019-03-19T11:26:18.673Z,4
2019-03-19T11:27:18.681Z,4
2019-03-19T11:28:18.655Z,4
2019-03-19T11:29:18.672Z,4
2019-03-19T11:30:18.661Z,4
2019-03-19T11:31:18.662Z,5
2019-03-19T11:32:18.818Z,5
2019-03-19T11:33:18.718Z,5
2019-03-19T11:34:18.673Z,5
2019-03-19T11:35:18.739Z,5
2019-03-19T11:36:18.779Z,5
2019-03-19T11:37:18.735Z,5
2019-03-19T11:38:18.794Z,5
2019-03-19T11:39:18.651Z,5
2019-03-19T11:40:18.687Z,5
2019-03-19T11:41:18.660Z,4
2019-03-19T11:42:18.669Z,4
2019-03-19T11:43:18.733Z,4
2019-03-19T11:44:18.653Z,5
2019-03-19T11:45:18.658Z,5
2019-03-19T11:46:18.646Z,5
2019-03-19T11:47:18.736Z,5
2019-03-19T11:48:18.808Z,5
2019-03-19T11:49:19.075Z,4
2019-03-19T11:50:18.687Z,4
2019-03-19T11:51:18.633Z,4
2019-03-19T11:52:18.658Z,4
2019-03-19T11:53:18.683Z,4
2019-03-19T11:54:18.688Z,4
2019-03-19T11:55:18.670Z,4
2019-03-19T11:56:18.634Z,4
2019-03-19T11:57:18.696Z,5
2019-03-19T11:58:19.042Z,6
2019-03-19T11:59:18.935Z,6
2019-03-19T12:00:20.933Z,8
2019-03-19T12:01:19.788Z,9
2019-03-19T12:02:25.806Z,8
2019-03-19T12:03:19.883Z,7
2019-03-19T12:04:19.999Z,7
2019-03-19T12:05:18.756Z,7
2019-03-19T12:06:18.644Z,4
2019-03-19T12:07:18.647Z,3
2019-03-19T12:08:18.650Z,3
2019-03-19T12:09:18.714Z,3
2019-03-19T12:10:18.641Z,3
2019-03-19T12:11:18.660Z,3
2019-03-19T12:12:18.664Z,3
2019-03-19T12:13:18.684Z,3
2019-03-19T12:14:18.779Z,3
2019-03-19T12:15:18.660Z,3
2019-03-19T12:16:18.657Z,3
2019-03-19T12:17:18.641Z,5
2019-03-19T12:18:18.716Z,5
2019-03-19T12:19:18.720Z,4
2019-03-19T12:20:20.671Z,3
2019-03-19T12:21:18.652Z,3
2019-03-19T12:22:18.645Z,4
2019-03-19T12:23:18.754Z,5
2019-03-19T12:24:18.746Z,2
2019-03-19T12:25:18.747Z,2
2019-03-19T12:26:18.656Z,3
2019-03-19T12:27:18.663Z,2
2019-03-19T12:28:18.667Z,3
2019-03-19T12:29:19.505Z,3
2019-03-19T12:30:22.494Z,4
2019-03-19T12:31:21.696Z,4
2019-03-19T12:32:18.756Z,3
2019-03-19T12:33:18.755Z,3
2019-03-19T12:34:27.222Z,4
2019-03-19T12:35:19.394Z,4
2019-03-19T12:36:18.657Z,2
2019-03-19T12:37:18.953Z,3
2019-03-19T12:38:18.665Z,2
2019-03-19T12:39:18.673Z,2
2019-03-19T12:40:18.727Z,2
2019-03-19T12:41:18.661Z,2
2019-03-19T12:42:18.770Z,2
2019-03-19T12:43:18.655Z,2
2019-03-19T12:44:18.664Z,3
2019-03-19T12:45:18.705Z,3
2019-03-19T12:46:18.796Z,3
2019-03-19T12:47:19.138Z,3
2019-03-19T12:48:18.766Z,4
2019-03-19T12:49:18.713Z,3
2019-03-19T12:50:18.948Z,3
2019-03-19T12:51:18.665Z,3
2019-03-19T12:52:18.669Z,3
2019-03-19T12:53:19.514Z,3
2019-03-19T12:54:18.661Z,2
2019-03-19T12:55:18.752Z,2
2019-03-19T12:56:18.776Z,2
2019-03-19T12:57:18.709Z,2
2019-03-19T12:58:18.683Z,2
2019-03-19T12:59:20.589Z,2
2019-03-19T13:00:18.666Z,2
2019-03-19T13:01:19.272Z,3
2019-03-19T13:02:19.025Z,3
2019-03-19T13:03:18.671Z,3
2019-03-19T13:04:19.729Z,3
2019-03-19T13:05:26.550Z,3
2019-03-19T13:06:19.554Z,3
2019-03-19T13:07:18.821Z,3
2019-03-19T13:08:20.386Z,3
2019-03-19T13:09:18.655Z,3
2019-03-19T13:10:18.672Z,3
2019-03-19T13:11:18.748Z,3
2019-03-19T13:12:18.652Z,3
2019-03-19T13:13:18.655Z,3
2019-03-19T13:14:18.692Z,3
2019-03-19T13:15:19.451Z,2
2019-03-19T13:16:18.717Z,2
2019-03-19T13:17:18.676Z,2
2019-03-19T13:18:18.655Z,2
2019-03-19T13:19:18.660Z,2
2019-03-19T13:20:18.639Z,2
2019-03-19T13:21:18.734Z,2
2019-03-19T13:22:19.899Z,3
2019-03-19T13:23:18.640Z,2
2019-03-19T13:24:18.637Z,2
2019-03-19T13:25:18.690Z,2
2019-03-19T13:26:18.723Z,2
2019-03-19T13:27:18.720Z,2
2019-03-19T13:28:18.650Z,2
2019-03-19T13:29:18.632Z,2
2019-03-19T13:30:18.660Z,2
2019-03-19T13:31:18.678Z,2
2019-03-19T13:32:18.639Z,2
2019-03-19T13:33:18.686Z,3
2019-03-19T13:34:18.698Z,3
2019-03-19T13:35:18.691Z,2
2019-03-19T13:37:18.711Z,2
2019-03-19T13:38:18.659Z,2
2019-03-19T13:39:18.964Z,2
2019-03-19T13:40:18.663Z,2
2019-03-19T13:41:18.733Z,3
2019-03-19T13:42:18.856Z,3
2019-03-19T13:43:18.824Z,3
2019-03-19T13:44:18.821Z,3
2019-03-19T13:45:18.849Z,3
2019-03-19T13:46:18.896Z,4
2019-03-19T13:47:18.675Z,4
2019-03-19T13:48:18.681Z,3
2019-03-19T13:49:18.850Z,3
2019-03-19T13:50:19.980Z,3
2019-03-19T13:51:18.716Z,3
2019-03-19T13:52:18.670Z,3
2019-03-19T13:53:18.651Z,3
2019-03-19T13:54:18.687Z,3
2019-03-19T13:55:18.653Z,3
2019-03-19T13:56:18.681Z,3
2019-03-19T13:57:18.648Z,3
2019-03-19T13:58:18.696Z,3
2019-03-19T13:59:19.196Z,3
2019-03-19T14:00:18.676Z,3
2019-03-19T14:01:18.652Z,3
2019-03-19T14:02:18.657Z,4
2019-03-19T14:03:18.633Z,3
2019-03-19T14:04:20.945Z,3
2019-03-19T14:05:18.671Z,2
2019-03-19T14:06:18.644Z,2
2019-03-19T14:07:18.648Z,2
2019-03-19T14:08:18.665Z,2
2019-03-19T14:09:18.698Z,2
2019-03-19T14:10:18.640Z,2
2019-03-19T14:11:18.653Z,2
2019-03-19T14:12:18.638Z,2
2019-03-19T14:13:18.690Z,2
2019-03-19T14:14:18.831Z,3
2019-03-19T14:15:18.649Z,2
2019-03-19T14:16:18.713Z,2
2019-03-19T14:17:18.801Z,2
2019-03-19T14:18:18.844Z,2
2019-03-19T14:19:18.633Z,3
2019-03-19T14:20:18.701Z,3
2019-03-19T14:21:18.654Z,2
2019-03-19T14:22:18.711Z,2
2019-03-19T14:23:18.643Z,2
2019-03-19T14:24:18.725Z,2
2019-03-19T14:25:18.693Z,2
2019-03-19T14:26:18.672Z,2
2019-03-19T14:27:18.673Z,2
2019-03-19T14:28:19.733Z,3
2019-03-19T14:29:18.611Z,3
2019-03-19T14:30:18.606Z,3
2019-03-19T14:31:18.639Z,3
2019-03-19T14:32:18.648Z,2
2019-03-19T14:33:18.674Z,2
2019-03-19T14:34:18.641Z,2
2019-03-19T14:35:18.627Z,2
2019-03-19T14:36:18.612Z,2
2019-03-19T14:37:18.662Z,2
2019-03-19T14:38:18.646Z,2
2019-03-19T14:39:18.713Z,2
2019-03-19T14:40:18.635Z,2
2019-03-19T14:41:18.625Z,2
2019-03-19T14:42:19.739Z,4
2019-03-19T14:43:18.621Z,4
2019-03-19T14:44:18.758Z,5
2019-03-19T14:45:18.689Z,4
2019-03-19T14:46:18.636Z,5
2019-03-19T14:47:18.632Z,5
2019-03-19T14:48:18.631Z,6
2019-03-19T14:49:18.689Z,5
2019-03-19T14:50:18.660Z,5
2019-03-19T14:51:18.641Z,5
2019-03-19T14:52:18.630Z,2
2019-03-19T14:53:18.630Z,2
2019-03-19T14:54:18.695Z,2
2019-03-19T14:55:18.698Z,2
2019-03-19T14:56:18.641Z,2
2019-03-19T14:57:18.649Z,2
2019-03-19T14:58:18.833Z,3
2019-03-19T14:59:18.685Z,3